Archival Weather

Murmansk

Murmansk, Russia (ULMM)

Report from: Thursday, April 25, 2024 12:00 PM MSK
Current time: Monday, June 17, 2024 9:52 AM MSK

Current weather – Weather history – Daily summaries
Weather forecast

Temperature4.0°C (39.2°F)
Wind chill2.2°C (36.0°F)
Dew point-2.0°C (28.4°F)
Winds 3.9 kts (2 m/s, 4.5 mph) Vrb
Winds variableWinds variable from South (170°) to West-Northwest (290°)
Visibility6.2 mi. (10 km)
Clouds Scattered clouds 2,000 ft. (610 m)
Altimeter30.00 in.Hg (1016 mB)
Precip. events QF 8:35 PM
Relative humidity65 %
Density altitude-1,344 ft. (-410 m)
Remarks No significant changes expected in the next two hours
Flight conditions Visual Meteorological Conditions
Raw dataULMM 250900Z 22002MPS 170V290 9999 SCT020 04/M02 Q1016 R13/290153 NOSIG RMK QFE755
An error has occurred. This application may no longer respond until reloaded. Reload 🗙